Bavaria

Go HERE for most recent data if this page is not up to date.

Jump to table bottom
Date Time Temp F RH % AVG Wind Max Wind Wind Dir 24 Snow Depth
04/12 17:00 47.1 32 3 6 SW - 228 -0.0 51.3
04/12 16:00 48.8 29 3 6 S - 195 -0.2 51.8
04/12 15:00 47.3 33 3 9 SW - 213 -0.2 52.4
04/12 14:00 48.8 33 3 8 SW - 231 -0.0 52.6
04/12 13:00 45.5 37 4 8 SW - 230 -0.2 52.9
04/12 12:00 47.4 33 4 7 SW - 212 -0.2 53.5
04/12 11:00 46.4 35 3 9 SW - 205 -0.2 54.0
04/12 10:00 44.9 36 3 9 SW - 209 -0.0 54.1
04/12 09:00 40.7 43 3 8 N - 353 0.2 54.5
04/12 08:00 37.4 47 2 7 SW - 241 0.2 54.5
04/12 07:00 35.8 51 2 6 SW - 237 0.2 54.5
04/12 06:00 35.1 53 2 12 SE - 144 0.2 54.4
04/12 05:00 35.4 56 2 5 W - 284 0.2 54.5
04/12 04:00 34.7 57 2 7 W - 254 0.2 54.5
04/12 03:00 33.9 54 3 9 SW - 206 0.2 54.3
04/12 02:00 35.1 52 3 8 S - 179 0.2 54.4
04/12 01:00 34.9 51 2 6 SW - 219 0.2 54.4
04/12 00:00 33.7 52 3 6 SW - 236 0.1 54.3
04/11 23:00 34.1 52 2 6 NW - 293 0.2 54.2
04/11 22:00 33.3 49 1 4 W - 273 0.2 54.2
04/11 21:00 33.0 46 1 4 S - 182 0.1 54.1
04/11 20:00 33.1 48 2 5 W - 277 0.0 53.8
04/11 19:00 37.2 41 2 6 W - 252 0.0 53.8
04/11 18:00 40.0 34 2 6 SW - 210 -0.0 53.9
04/11 17:00 42.3 32 2 7 S - 183 -0.0 53.8
04/11 16:00 40.5 30 2 7 SW - 232 -0.3 53.5
04/11 15:00 43.6 24 2 5 SE - 155 -0.4 54.0
04/11 14:00 44.7 24 2 5 SW - 205 -0.4 54.5
04/11 13:00 44.4 21 2 5 S - 172 -0.4 54.7
04/11 12:00 43.5 19 2 5 S - 198 -0.3 55.2
04/11 11:00 41.3 25 1 5 S - 183 -0.1 55.6
04/11 10:00 36.9 28 1 5 SW - 217 -0.0 56.2
04/11 09:00 31.4 37 2 5 S - 200 0.2 56.1
04/11 08:00 26.3 45 2 7 S - 197 0.3 56.1
04/11 07:00 25.0 46 1 4 SW - 246 0.2 56.0
04/11 06:00 25.2 44 2 5 SW - 204 0.2 55.8
04/11 05:00 25.3 43 2 7 W - 255 0.2 55.8
04/11 04:00 26.1 42 4 8 SW - 231 0.2 55.7
04/11 03:00 26.1 41 4 8 SW - 236 0.2 55.6
04/11 02:00 26.0 45 5 7 NW - 309 0.2 55.7
04/11 01:00 26.1 43 5 7 W - 276 0.2 55.9
04/11 00:00 26.3 46 4 8 NW - 295 0.2 55.8
.